Wallingford, CT (06495)

9:04 AM EST on December 25, 2014 (GMT -0500)
KCTWALLI4 | Change Station
CLOSE
Current Station
Personal Weather Station
Location: Wallingford, CT
Elevation: 267 ft
Nearby Weather Stations

Elev 267 ft 41.49 °N, 72.85 °W | Updated 4 minutes ago

Overcast
Overcast
49.1 °F
Feels Like 49 °F
N
2.0
Wind Variable Wind from WSW
Gusts 11.0 mph

Today
High -- | Low -- °F
--% Chance of Precip.
Yesterday
High -- | Low -- °F
Precip. -- in
7:15 AM 4:26 PM
Waxing Crescent, 16% visible
Pressure 29.62 in
Visibility 10.0 miles
Clouds Overcast 7000 ft
Windchill 49 °F
Dew Point 41 °F
Humidity 73%
Rainfall -999.00 in
Snow Depth Not available.
UV 0 out of 12
Pollen .10 out of 12
Air Quality Not available.
Flu Activity Not available.
METAR KMMK 251353Z AUTO 25008G19KT 10SM OVC070 11/06 A2962 RMK AO2 RAE1255 SLP031 P0000 T01060056 TSNO

More Conditions Fewer Conditions

Pressure 29.62 in
Visibility 10.0 miles
Clouds Overcast 7000 ft
Windchill 49 °F
Dew Point 41 °F
Humidity 73%
Rainfall -999.00 in
Snow Depth Not available.
UV 0 out of 12
Pollen .10 out of 12
Air Quality Not available.
Flu Activity Not available.
METAR KMMK 251353Z AUTO 25008G19KT 10SM OVC070 11/06 A2962 RMK AO2 RAE1255 SLP031 P0000 T01060056 TSNO

More Conditions Fewer Conditions

10-Day Weather Forecast

Almanac

Astronomy

Dec. 25, 2014 Rise Set
Actual Time
Civil Twilight
Nautical Twilight
Astronomical Twilight
Moon
Length of Visible Light
Length of Day
Tomorrow will be .
, % of the Moon is Illuminated

Today's Extremes

State Highs State Lows

Community

WunderPhotos

Upload Photos

1,780,277 photos uploaded!

WunderBlogs® & News

Nearby

Air Quality

  Air Quality AQ Index Pollutant
Not available.

Snow Depth

Station Depth Elevation

Earthquake Activity

City Distance Mag. Time & Date
Minimum magnitude displayed is 2.5.

Coastal Water Temperatures

Place Temperature

Nearby Weather Stations